createdAt,value
2019-01-15T00:01:05.251Z,2.23
2019-01-15T00:03:34.902Z,2.93
2019-01-15T00:06:04.793Z,2.37
2019-01-15T00:08:34.429Z,1.73
2019-01-15T00:11:04.180Z,2.40
2019-01-15T00:13:33.846Z,1.70
2019-01-15T00:16:03.527Z,1.87
2019-01-15T00:18:33.228Z,1.93
2019-01-15T00:21:02.896Z,2.00
2019-01-15T00:23:32.811Z,1.63
2019-01-15T00:26:02.468Z,2.70
2019-01-15T00:28:32.157Z,2.93
2019-01-15T00:31:01.786Z,3.07
2019-01-15T00:33:31.525Z,2.30
2019-01-15T00:36:01.224Z,1.70
2019-01-15T00:38:30.928Z,1.97
2019-01-15T00:41:00.619Z,2.20
2019-01-15T00:43:30.231Z,2.33
2019-01-15T00:45:59.890Z,2.60
2019-01-15T00:48:29.515Z,1.87
2019-01-15T00:50:59.200Z,2.57
2019-01-15T00:53:28.834Z,2.40
2019-01-15T00:55:58.576Z,2.50
2019-01-15T00:58:28.287Z,2.57
2019-01-15T01:00:57.910Z,2.43
2019-01-15T01:03:27.667Z,2.07
2019-01-15T01:05:57.439Z,2.47
2019-01-15T01:08:27.195Z,2.27
2019-01-15T01:10:56.828Z,1.90
2019-01-15T01:13:26.544Z,1.87
2019-01-15T01:15:56.166Z,2.50
2019-01-15T01:18:25.898Z,2.67
2019-01-15T01:20:55.549Z,2.73
2019-01-15T01:23:25.203Z,1.77
2019-01-15T01:25:54.906Z,2.60
2019-01-15T01:28:24.617Z,2.37
2019-01-15T01:30:54.334Z,2.70
2019-01-15T01:33:23.977Z,1.73
2019-01-15T01:35:53.676Z,2.43
2019-01-15T01:38:23.305Z,2.70
2019-01-15T01:40:52.970Z,2.27
2019-01-15T01:43:22.735Z,1.83
2019-01-15T01:45:52.489Z,3.10
2019-01-15T01:48:22.169Z,2.10
2019-01-15T01:50:51.890Z,2.00
2019-01-15T01:53:21.545Z,2.40
2019-01-15T01:55:51.218Z,2.50
2019-01-15T01:58:20.920Z,2.43
2019-01-15T02:00:50.578Z,2.07
2019-01-15T02:03:20.204Z,2.33
2019-01-15T02:05:49.847Z,2.20
2019-01-15T02:08:19.468Z,2.40
2019-01-15T02:10:49.155Z,3.23
2019-01-15T02:13:18.846Z,2.70
2019-01-15T02:15:48.523Z,1.90
2019-01-15T02:18:18.191Z,1.80
2019-01-15T02:20:47.859Z,2.23
2019-01-15T02:23:17.563Z,2.50
2019-01-15T02:25:47.230Z,2.73
2019-01-15T02:28:16.904Z,2.13
2019-01-15T02:30:46.772Z,2.70
2019-01-15T02:33:16.490Z,2.30
2019-01-15T02:35:46.135Z,2.80
2019-01-15T02:38:15.846Z,2.20
2019-01-15T02:40:45.524Z,2.50
2019-01-15T02:43:15.317Z,2.47
2019-01-15T02:45:45.012Z,2.50
2019-01-15T02:48:14.669Z,1.60
2019-01-15T02:50:44.347Z,3.23
2019-01-15T02:53:13.980Z,2.33
2019-01-15T02:55:43.675Z,3.13
2019-01-15T02:58:13.363Z,2.27
2019-01-15T03:00:43.005Z,2.83
2019-01-15T03:03:12.741Z,3.13
2019-01-15T03:05:42.395Z,2.63
2019-01-15T03:08:15.187Z,2.83
2019-01-15T03:10:44.818Z,2.73
2019-01-15T03:13:14.478Z,2.63
2019-01-15T03:15:44.210Z,4.03
2019-01-15T03:18:13.865Z,2.83
2019-01-15T03:20:43.599Z,2.73
2019-01-15T03:23:13.293Z,1.53
2019-01-15T03:25:43.096Z,2.50
2019-01-15T03:28:12.770Z,2.23
2019-01-15T03:30:42.448Z,2.30
2019-01-15T03:33:12.193Z,2.70
2019-01-15T03:35:41.875Z,2.93
2019-01-15T03:38:11.532Z,2.80
2019-01-15T03:40:41.215Z,2.40
2019-01-15T03:43:10.966Z,2.03
2019-01-15T03:45:40.664Z,2.33
2019-01-15T03:48:10.391Z,2.33
2019-01-15T03:50:40.101Z,2.63
2019-01-15T03:53:09.826Z,2.43
2019-01-15T03:55:39.543Z,3.13
2019-01-15T03:58:09.277Z,2.50
2019-01-15T04:00:38.953Z,3.17
2019-01-15T04:03:08.718Z,2.27
2019-01-15T04:05:38.404Z,2.50
2019-01-15T04:08:08.121Z,2.13
2019-01-15T04:10:37.776Z,2.57
2019-01-15T04:13:11.458Z,2.27
2019-01-15T04:15:38.805Z,2.47
2019-01-15T04:18:08.494Z,2.90
2019-01-15T04:20:38.206Z,2.23
2019-01-15T04:23:07.873Z,2.57
2019-01-15T04:25:37.590Z,4.50
2019-01-15T04:28:07.502Z,2.83
2019-01-15T04:30:37.174Z,3.13
2019-01-15T04:33:06.855Z,2.30
2019-01-15T04:35:36.557Z,3.00
2019-01-15T04:38:06.190Z,3.30
2019-01-15T04:40:35.899Z,2.60
2019-01-15T04:43:05.637Z,2.67
2019-01-15T04:45:35.373Z,2.13
2019-01-15T04:48:05.033Z,1.73
2019-01-15T04:50:35.031Z,2.53
2019-01-15T04:53:04.879Z,2.50
2019-01-15T04:55:34.571Z,2.70
2019-01-15T04:58:04.378Z,3.40
2019-01-15T05:00:34.087Z,2.23
2019-01-15T05:03:07.241Z,1.90
2019-01-15T05:05:37.169Z,1.50
2019-01-15T05:08:06.939Z,3.77
2019-01-15T05:10:36.896Z,2.37
2019-01-15T05:13:07.355Z,2.70
2019-01-15T05:15:36.996Z,2.60
2019-01-15T05:18:06.700Z,2.20
2019-01-15T05:20:36.345Z,2.07
2019-01-15T05:23:06.065Z,1.83
2019-01-15T05:25:35.723Z,2.37
2019-01-15T05:28:05.602Z,1.60
2019-01-15T05:30:35.422Z,1.97
2019-01-15T05:33:05.054Z,2.00
2019-01-15T05:35:34.685Z,2.13
2019-01-15T05:38:04.491Z,2.07
2019-01-15T05:40:34.185Z,3.03
2019-01-15T05:43:03.952Z,2.93
2019-01-15T05:45:38.278Z,2.10
2019-01-15T05:48:36.067Z,2.87
2019-01-15T05:51:30.581Z,1.93
2019-01-15T05:54:00.177Z,1.53
2019-01-15T05:56:29.917Z,2.40
2019-01-15T05:58:59.566Z,1.90
2019-01-15T06:01:29.220Z,1.60
2019-01-15T06:03:58.823Z,2.00
2019-01-15T06:06:28.488Z,2.17
2019-01-15T06:08:58.175Z,2.27
2019-01-15T06:11:27.972Z,2.00
2019-01-15T06:13:57.706Z,1.63
2019-01-15T06:16:27.396Z,2.30
2019-01-15T06:18:57.118Z,2.13
2019-01-15T06:21:26.743Z,1.40
2019-01-15T06:23:56.476Z,2.17
2019-01-15T06:26:26.214Z,1.80
2019-01-15T06:28:55.905Z,2.63
2019-01-15T06:31:25.560Z,1.77
2019-01-15T06:33:55.273Z,2.00
2019-01-15T06:36:24.993Z,1.90
2019-01-15T06:38:54.654Z,1.40
2019-01-15T06:41:24.300Z,2.47
2019-01-15T06:43:54.019Z,2.37
2019-01-15T06:46:23.686Z,1.43
2019-01-15T06:48:53.527Z,1.33
2019-01-15T06:51:23.197Z,1.87
2019-01-15T06:53:52.841Z,1.80
2019-01-15T06:56:22.625Z,2.10
2019-01-15T06:58:52.360Z,2.13
2019-01-15T07:01:22.139Z,2.30
2019-01-15T07:03:51.749Z,1.90
2019-01-15T07:06:21.419Z,1.60
2019-01-15T07:08:51.123Z,2.17
2019-01-15T07:11:20.832Z,1.63
2019-01-15T07:13:56.858Z,1.60
2019-01-15T07:16:22.153Z,2.00
2019-01-15T07:18:51.807Z,2.10
2019-01-15T07:21:21.558Z,1.50
2019-01-15T07:23:51.569Z,1.73
2019-01-15T07:26:21.240Z,1.53
2019-01-15T07:28:50.881Z,1.60
2019-01-15T07:31:20.513Z,1.30
2019-01-15T07:33:50.232Z,2.17
2019-01-15T07:36:19.872Z,1.57
2019-01-15T07:38:49.523Z,1.53
2019-01-15T07:41:19.251Z,1.40
2019-01-15T07:43:48.895Z,2.20
2019-01-15T07:46:18.630Z,1.13
2019-01-15T07:48:48.551Z,1.60
2019-01-15T07:51:18.234Z,1.70
2019-01-15T07:53:47.931Z,1.40
2019-01-15T07:56:18.150Z,1.70
2019-01-15T07:58:47.776Z,1.43
2019-01-15T08:01:19.008Z,1.57
2019-01-15T08:03:48.702Z,1.37
2019-01-15T08:06:18.412Z,1.80
2019-01-15T08:08:48.145Z,1.50
2019-01-15T08:11:17.882Z,2.27
2019-01-15T08:13:47.626Z,0.73
2019-01-15T08:16:17.404Z,1.00
2019-01-15T08:18:47.060Z,1.50
2019-01-15T08:21:16.785Z,1.70
2019-01-15T08:23:46.507Z,1.60
2019-01-15T08:26:16.154Z,1.00
2019-01-15T08:28:45.856Z,0.93
2019-01-15T08:31:15.601Z,1.17
2019-01-15T08:33:45.435Z,1.50
2019-01-15T08:36:15.174Z,1.83
2019-01-15T08:38:44.943Z,0.97
2019-01-15T08:41:14.642Z,1.40
2019-01-15T08:43:44.341Z,1.93
2019-01-15T08:46:14.136Z,1.30
2019-01-15T08:48:43.863Z,1.70
2019-01-15T08:51:14.160Z,1.50
2019-01-15T08:53:44.504Z,1.50
2019-01-15T08:56:14.554Z,1.93
2019-01-15T08:58:44.305Z,1.77
2019-01-15T09:01:14.484Z,2.20
2019-01-15T09:03:44.300Z,1.70
2019-01-15T09:06:13.950Z,1.10
2019-01-15T09:08:43.553Z,2.13
2019-01-15T09:11:13.298Z,2.00
2019-01-15T09:13:43.105Z,1.67
2019-01-15T09:16:12.851Z,1.90
2019-01-15T09:18:42.726Z,1.60
2019-01-15T09:21:12.440Z,1.70
2019-01-15T09:23:42.166Z,1.63
2019-01-15T09:26:11.931Z,1.63
2019-01-15T09:28:41.851Z,2.43
2019-01-15T09:31:11.637Z,1.50
2019-01-15T09:33:41.610Z,1.70
2019-01-15T09:36:11.502Z,2.53
2019-01-15T09:38:41.231Z,2.20
2019-01-15T09:41:23.376Z,1.50
2019-01-15T09:43:53.730Z,1.70
2019-01-15T09:46:25.424Z,1.93
2019-01-15T09:48:56.424Z,1.53
2019-01-15T09:51:28.158Z,1.60
2019-01-15T09:53:58.576Z,1.63
2019-01-15T09:56:29.737Z,1.93
2019-01-15T09:59:00.473Z,1.73
2019-01-15T10:01:31.017Z,2.13
2019-01-15T10:04:04.349Z,1.63
2019-01-15T10:06:34.486Z,2.10
2019-01-15T10:09:08.037Z,2.03
2019-01-15T10:11:39.226Z,2.17
2019-01-15T10:14:31.255Z,1.80
2019-01-15T10:17:01.504Z,2.17
2019-01-15T10:19:32.211Z,1.90
2019-01-15T10:22:03.892Z,3.20
2019-01-15T10:24:35.817Z,1.80
2019-01-15T10:27:11.757Z,2.10
2019-01-15T10:29:58.979Z,2.37
2019-01-15T10:32:48.106Z,2.23
2019-01-15T10:36:00.426Z,2.87
2019-01-15T10:38:32.228Z,2.10
2019-01-15T10:41:08.039Z,2.30
2019-01-15T10:43:37.709Z,2.53
2019-01-15T10:46:09.672Z,3.47
2019-01-15T10:48:43.120Z,2.30
2019-01-15T10:51:13.840Z,2.53
2019-01-15T10:53:48.932Z,2.40
2019-01-15T10:56:20.483Z,2.90
2019-01-15T10:59:00.594Z,2.97
2019-01-15T11:01:32.265Z,3.23
2019-01-15T11:04:02.567Z,2.87
2019-01-15T11:06:38.199Z,2.37
2019-01-15T11:09:14.873Z,2.97
2019-01-15T11:11:46.529Z,3.40
2019-01-15T11:14:42.468Z,3.00
2019-01-15T11:17:22.906Z,3.53
2019-01-15T11:19:52.551Z,3.63
2019-01-15T11:22:23.234Z,3.57
2019-01-15T11:24:54.921Z,3.33
2019-01-15T11:27:36.899Z,3.67
2019-01-15T11:30:17.308Z,3.33
2019-01-15T11:32:50.204Z,4.10
2019-01-15T11:35:36.814Z,4.43
2019-01-15T11:38:07.317Z,3.93
2019-01-15T11:40:37.280Z,4.17
2019-01-15T11:43:12.959Z,4.00
2019-01-15T11:45:44.010Z,4.30
2019-01-15T11:48:15.397Z,4.07
2019-01-15T11:50:46.370Z,4.43
2019-01-15T11:53:28.066Z,3.60
2019-01-15T11:56:21.544Z,4.67
2019-01-15T11:58:52.327Z,4.47
2019-01-15T12:01:44.273Z,4.93
2019-01-15T12:04:46.872Z,4.77
2019-01-15T12:07:36.259Z,5.17
2019-01-15T12:10:27.447Z,6.30
2019-01-15T12:13:22.462Z,5.47
2019-01-15T12:16:01.560Z,5.70
2019-01-15T12:19:12.071Z,5.30
2019-01-15T12:22:24.249Z,5.50
2019-01-15T12:25:34.449Z,4.93
2019-01-15T12:28:32.700Z,6.27
2019-01-15T12:34:45.880Z,6.20
2019-01-15T12:37:33.134Z,6.10
2019-01-15T12:40:53.382Z,6.97
2019-01-15T12:43:42.964Z,6.17
2019-01-15T12:46:35.087Z,7.03
2019-01-15T12:49:23.431Z,7.43
2019-01-15T12:52:17.899Z,7.10
2019-01-15T12:55:21.832Z,7.10
2019-01-15T12:58:09.226Z,7.80
2019-01-15T13:00:59.120Z,7.17
2019-01-15T13:03:42.417Z,7.43
2019-01-15T13:06:30.063Z,7.50
2019-01-15T13:09:17.886Z,7.80
2019-01-15T13:12:13.641Z,9.00
2019-01-15T13:15:02.685Z,8.20
2019-01-15T13:17:56.491Z,8.07
2019-01-15T13:20:49.295Z,8.20
2019-01-15T13:23:48.831Z,8.70
2019-01-15T13:26:39.767Z,8.13
2019-01-15T13:29:30.001Z,8.83
2019-01-15T13:32:17.294Z,8.83
2019-01-15T13:35:06.684Z,9.00
2019-01-15T13:38:02.742Z,9.97
2019-01-15T13:40:45.964Z,9.33
2019-01-15T13:43:51.099Z,9.87
2019-01-15T13:46:55.164Z,9.57
2019-01-15T13:49:54.227Z,9.07
2019-01-15T13:52:57.213Z,10.33
2019-01-15T13:56:07.961Z,10.17
2019-01-15T13:59:06.173Z,9.53
2019-01-15T14:01:57.159Z,10.83
2019-01-15T14:04:44.771Z,11.00
2019-01-15T14:07:38.208Z,10.20
2019-01-15T14:10:29.946Z,10.17
2019-01-15T14:13:31.769Z,9.97
2019-01-15T14:16:39.879Z,11.40
2019-01-15T14:19:28.310Z,11.77
2019-01-15T14:22:22.781Z,11.73
2019-01-15T14:25:19.324Z,10.90
2019-01-15T14:28:09.231Z,11.20
2019-01-15T14:31:10.027Z,9.63
2019-01-15T14:34:04.837Z,11.90
2019-01-15T14:36:56.427Z,12.07
2019-01-15T14:39:43.808Z,11.40
2019-01-15T14:42:36.772Z,11.43
2019-01-15T14:45:35.235Z,11.23
2019-01-15T14:48:24.484Z,10.87
2019-01-15T14:51:23.615Z,11.40
2019-01-15T14:54:14.266Z,11.43
2019-01-15T14:57:15.567Z,11.50
2019-01-15T14:59:59.078Z,10.40
2019-01-15T15:20:32.748Z,11.23
2019-01-15T15:23:31.155Z,11.57
2019-01-15T15:26:39.780Z,11.00
2019-01-15T15:29:26.051Z,12.50
2019-01-15T15:32:14.502Z,14.27
2019-01-15T15:35:16.443Z,13.07
2019-01-15T15:38:21.540Z,13.40
2019-01-15T15:41:28.766Z,14.67
2019-01-15T15:44:09.558Z,12.53
2019-01-15T15:47:14.153Z,14.37
2019-01-15T15:50:10.679Z,14.33
2019-01-15T15:53:14.009Z,15.53
2019-01-15T15:56:02.818Z,13.63
2019-01-15T15:58:58.811Z,13.83
2019-01-15T16:01:47.528Z,15.03
2019-01-15T16:04:36.885Z,14.13
2019-01-15T16:07:25.555Z,14.13
2019-01-15T16:10:16.715Z,13.17
2019-01-15T16:13:14.190Z,13.87
2019-01-15T16:16:07.839Z,14.83
2019-01-15T16:19:04.766Z,13.70
2019-01-15T16:21:55.199Z,13.93
2019-01-15T16:24:50.859Z,13.50
2019-01-15T16:27:34.715Z,14.37
2019-01-15T16:30:32.738Z,14.30
2019-01-15T16:33:27.136Z,13.43
2019-01-15T16:36:16.182Z,13.30
2019-01-15T16:39:05.076Z,13.30
2019-01-15T16:42:06.002Z,12.73
2019-01-15T16:44:57.589Z,11.80
2019-01-15T16:47:55.069Z,12.07
2019-01-15T16:50:42.918Z,12.40
2019-01-15T16:53:30.864Z,12.97
2019-01-15T16:56:19.386Z,11.20
2019-01-15T16:59:37.026Z,10.53
2019-01-15T17:02:46.476Z,13.50
2019-01-15T17:05:34.129Z,12.27
2019-01-15T17:08:18.055Z,10.87
2019-01-15T17:11:07.099Z,9.37
2019-01-15T17:13:54.837Z,10.77
2019-01-15T17:16:43.197Z,11.07
2019-01-15T17:19:34.232Z,10.97
2019-01-15T17:22:22.201Z,10.30
2019-01-15T17:25:26.011Z,10.93
2019-01-15T17:28:04.461Z,9.47
2019-01-15T17:30:57.605Z,10.53
2019-01-15T17:33:48.769Z,10.80
2019-01-15T17:36:36.045Z,11.57
2019-01-15T17:39:27.992Z,9.87
2019-01-15T17:42:12.915Z,9.43
2019-01-15T17:45:03.825Z,10.40
2019-01-15T17:47:51.177Z,9.73
2019-01-15T17:50:39.777Z,7.80
2019-01-15T17:53:46.262Z,9.37
2019-01-15T17:56:49.895Z,8.00
2019-01-15T17:59:41.279Z,9.10
2019-01-15T18:02:32.966Z,8.73
2019-01-15T18:05:30.695Z,8.37
2019-01-15T18:08:18.043Z,8.00
2019-01-15T18:11:05.294Z,8.50
2019-01-15T18:13:56.730Z,8.30
2019-01-15T18:16:48.648Z,9.03
2019-01-15T18:19:35.967Z,8.27
2019-01-15T18:22:23.511Z,9.90
2019-01-15T18:25:15.159Z,8.70
2019-01-15T18:28:07.025Z,9.67
2019-01-15T18:31:05.254Z,8.90
2019-01-15T18:33:50.287Z,9.70
2019-01-15T18:36:39.004Z,9.97
2019-01-15T18:39:26.942Z,9.80
2019-01-15T18:42:20.320Z,9.80
2019-01-15T18:45:05.586Z,10.50
2019-01-15T18:47:54.412Z,9.30
2019-01-15T18:50:45.573Z,10.20
2019-01-15T18:53:32.364Z,11.00
2019-01-15T18:56:15.565Z,10.30
2019-01-15T18:59:13.449Z,10.90
2019-01-15T19:02:11.043Z,10.13
2019-01-15T19:05:02.965Z,10.80
2019-01-15T19:07:59.394Z,10.60
2019-01-15T19:10:53.075Z,10.57
2019-01-15T19:13:41.516Z,9.50
2019-01-15T19:16:32.413Z,11.57
2019-01-15T19:19:51.634Z,11.53
2019-01-15T19:22:45.948Z,11.40
2019-01-15T19:25:34.930Z,12.67
2019-01-15T19:28:28.811Z,12.60
2019-01-15T19:31:30.865Z,13.60
2019-01-15T19:34:20.872Z,13.47
2019-01-15T19:37:27.942Z,12.63
2019-01-15T19:40:27.149Z,13.47
2019-01-15T19:43:26.364Z,12.83
2019-01-15T19:46:32.315Z,11.77
2019-01-15T19:49:15.088Z,12.90
2019-01-15T19:52:04.982Z,12.57
2019-01-15T19:54:52.989Z,12.43
2019-01-15T19:57:48.700Z,12.13
2019-01-15T20:00:44.271Z,12.83
2019-01-15T20:03:35.774Z,10.97
2019-01-15T20:06:18.245Z,12.33
2019-01-15T20:09:07.885Z,12.93
2019-01-15T20:12:04.732Z,14.80
2019-01-15T20:15:05.637Z,12.37
2019-01-15T20:17:46.331Z,12.73
2019-01-15T20:20:24.971Z,11.83
2019-01-15T20:23:12.475Z,12.13
2019-01-15T20:26:02.151Z,11.83
2019-01-15T20:28:53.706Z,10.60
2019-01-15T20:31:50.358Z,11.33
2019-01-15T20:34:43.651Z,11.37
2019-01-15T20:37:44.744Z,11.37
2019-01-15T20:40:42.939Z,10.03
2019-01-15T20:43:31.090Z,11.43
2019-01-15T20:46:13.201Z,13.03
2019-01-15T20:48:58.769Z,13.50
2019-01-15T20:51:57.412Z,11.13
2019-01-15T20:54:36.584Z,11.87
2019-01-15T20:57:23.897Z,9.77
2019-01-15T21:00:12.529Z,11.20
2019-01-15T21:03:00.053Z,11.47
2019-01-15T21:05:47.315Z,10.83
2019-01-15T21:08:34.737Z,11.43
2019-01-15T21:11:35.925Z,9.53
2019-01-15T21:14:30.860Z,9.93
2019-01-15T21:17:19.693Z,10.67
2019-01-15T21:20:07.563Z,9.90
2019-01-15T21:22:50.842Z,9.27
2019-01-15T21:25:51.821Z,9.47
2019-01-15T21:28:32.898Z,10.27
2019-01-15T21:31:31.180Z,11.07
2019-01-15T21:34:26.186Z,10.80
2019-01-15T21:37:27.678Z,9.90
2019-01-15T21:40:16.517Z,11.27
2019-01-15T21:43:03.622Z,10.67
2019-01-15T21:45:50.968Z,10.77
2019-01-15T21:48:38.425Z,11.63
2019-01-15T21:51:39.170Z,10.87
2019-01-15T21:54:38.780Z,11.20
2019-01-15T21:57:30.274Z,11.03
2019-01-15T22:00:17.663Z,11.77
2019-01-15T22:03:09.111Z,12.30
2019-01-15T22:06:02.271Z,11.30
2019-01-15T22:08:57.098Z,12.13
2019-01-15T22:11:42.170Z,12.53
2019-01-15T22:14:35.052Z,11.97
2019-01-15T22:17:24.445Z,12.77
2019-01-15T22:20:14.647Z,14.37
2019-01-15T22:23:21.692Z,12.57
2019-01-15T22:26:16.311Z,11.93
2019-01-15T22:28:58.885Z,14.47
2019-01-15T22:31:50.577Z,15.00
2019-01-15T22:34:34.309Z,16.57
2019-01-15T22:37:25.746Z,14.87
2019-01-15T22:40:13.307Z,15.30
2019-01-15T22:43:04.894Z,15.27
2019-01-15T22:45:53.540Z,15.40
2019-01-15T22:48:40.923Z,15.23
2019-01-15T22:51:28.349Z,14.90
2019-01-15T22:54:22.753Z,14.87
2019-01-15T22:57:17.441Z,14.87
2019-01-15T23:00:06.032Z,14.50
2019-01-15T23:03:12.820Z,13.70
2019-01-15T23:06:04.703Z,13.27
2019-01-15T23:09:06.274Z,13.33
2019-01-15T23:11:48.146Z,13.80
2019-01-15T23:14:42.644Z,14.57
2019-01-15T23:17:34.058Z,14.00
2019-01-15T23:20:38.255Z,14.83
2019-01-15T23:23:26.888Z,13.63
2019-01-15T23:26:15.467Z,12.80
2019-01-15T23:29:08.054Z,12.83
2019-01-15T23:31:55.650Z,13.53
2019-01-15T23:34:37.468Z,13.53
2019-01-15T23:37:24.747Z,13.90
2019-01-15T23:40:08.258Z,14.00
2019-01-15T23:42:56.878Z,13.43
2019-01-15T23:45:45.768Z,12.13
2019-01-15T23:48:29.918Z,13.73
2019-01-15T23:51:36.679Z,13.10
2019-01-15T23:54:34.531Z,13.40
2019-01-15T23:57:41.483Z,13.13
